Time;durP1;ratioP1;P1;durP2;ratioP2;P2;SDS_P1;SDS_P2;PMS_P1;PMS_P2;Temp;Humidity;BMP_temperature;BMP_pressure;BME280_temperature;BME280_humidity;BME280_pressure;Samples;Min_cycle;Max_cycle;Signal;HPM_P1;HPM_P2
2022/08/17 00:01:16;;;;;;;15.57;14.07;;;22.10;86.20;;;;;;5043170;28;20465;-81
2022/08/17 00:03:46;;;;;;;15.77;14.27;;;22.10;87.10;;;;;;5043270;28;20481;-81
2022/08/17 00:06:16;;;;;;;14.90;13.40;;;22.10;87.30;;;;;;5042435;28;20797;-81
2022/08/17 00:08:48;;;;;;;15.37;13.87;;;22.00;88.10;;;;;;5052004;28;20458;-81
2022/08/17 00:11:17;;;;;;;14.97;13.57;;;22.00;88.80;;;;;;5054277;28;20545;-80
2022/08/17 00:13:47;;;;;;;15.83;14.40;;;21.90;89.80;;;;;;5053189;28;20446;-80
2022/08/17 00:16:19;;;;;;;15.83;14.33;;;21.90;90.20;;;;;;5052951;28;20521;-81
2022/08/17 00:18:49;;;;;;;15.63;14.20;;;21.90;90.80;;;;;;5049510;28;20454;-81
2022/08/17 00:21:21;;;;;;;17.83;14.40;;;21.80;91.10;;;;;;5041083;28;20457;-81
2022/08/17 00:23:50;;;;;;;16.70;15.07;;;21.80;91.50;;;;;;5043572;28;20436;-81
2022/08/17 00:26:18;;;;;;;16.47;14.80;;;21.80;91.90;;;;;;5053215;28;20485;-81
2022/08/17 00:28:45;;;;;;;15.77;14.17;;;21.60;92.40;;;;;;5053784;28;20430;-80
2022/08/17 00:31:12;;;;;;;16.33;14.73;;;21.60;93.10;;;;;;5042171;28;20457;-81
2022/08/17 00:33:44;;;;;;;16.13;14.70;;;21.60;93.60;;;;;;5041484;28;20477;-81
2022/08/17 00:36:15;;;;;;;16.63;15.00;;;21.60;94.00;;;;;;5041179;28;20453;-81
2022/08/17 00:38:42;;;;;;;15.07;13.67;;;21.50;94.40;;;;;;5041322;28;20456;-81
2022/08/17 00:41:12;;;;;;;15.90;14.40;;;21.50;94.90;;;;;;5043619;28;20507;-81
2022/08/17 00:43:43;;;;;;;15.37;13.93;;;21.50;94.80;;;;;;5053137;28;20457;-82
2022/08/17 00:46:19;;;;;;;14.60;13.30;;;21.50;95.00;;;;;;5041279;28;20454;-82
2022/08/17 00:48:47;;;;;;;16.63;15.23;;;21.50;95.20;;;;;;5043853;28;20461;-81
2022/08/17 00:51:23;;;;;;;16.10;14.63;;;21.50;95.40;;;;;;5049278;28;20480;-82
2022/08/17 00:53:54;;;;;;;14.80;13.37;;;21.40;95.70;;;;;;5041960;28;20459;-82
2022/08/17 00:56:28;;;;;;;15.10;13.73;;;21.40;95.70;;;;;;5045312;28;21162;-82
2022/08/17 00:58:55;;;;;;;15.40;13.80;;;21.40;95.90;;;;;;5039318;28;20528;-82
2022/08/17 01:01:23;;;;;;;14.70;13.30;;;21.40;96.10;;;;;;5040307;28;20830;-82
2022/08/17 01:03:51;;;;;;;15.23;13.70;;;21.40;96.40;;;;;;5041134;28;20460;-82
2022/08/17 01:06:19;;;;;;;14.77;13.53;;;21.40;96.50;;;;;;5045248;28;20453;-82
2022/08/17 01:08:46;;;;;;;13.90;11.50;;;21.30;96.50;;;;;;5041980;28;20473;-82
2022/08/17 01:11:13;;;;;;;12.70;11.60;;;21.30;96.40;;;;;;5039852;28;20469;-82
2022/08/17 01:13:44;;;;;;;13.13;11.93;;;21.30;96.50;;;;;;5040467;28;20448;-82
2022/08/17 01:16:16;;;;;;;12.73;11.40;;;21.20;96.80;;;;;;5039017;28;20442;-82
2022/08/17 01:18:44;;;;;;;11.10;10.10;;;21.20;97.00;;;;;;5040269;28;20466;-82
2022/08/17 01:21:19;;;;;;;9.97;9.17;;;21.10;97.10;;;;;;5039744;28;21039;-82
2022/08/17 01:23:48;;;;;;;9.37;8.53;;;21.10;97.20;;;;;;5040180;28;20494;-82
2022/08/17 01:26:15;;;;;;;10.07;8.60;;;21.00;97.30;;;;;;5039415;28;20549;-82
2022/08/17 01:28:45;;;;;;;10.10;9.10;;;21.10;97.00;;;;;;5047233;28;20453;-82
2022/08/17 01:31:12;;;;;;;10.80;9.80;;;21.10;97.00;;;;;;5049713;28;20478;-82
2022/08/17 01:33:40;;;;;;;12.10;11.10;;;21.10;97.00;;;;;;5041690;28;20482;-81
2022/08/17 01:36:08;;;;;;;15.07;13.47;;;21.10;97.40;;;;;;5050400;28;20525;-80
2022/08/17 01:38:39;;;;;;;15.40;13.60;;;21.10;98.00;;;;;;5043140;28;20941;-81
2022/08/17 01:41:11;;;;;;;15.17;13.67;;;21.00;98.70;;;;;;5058915;28;20544;-80
2022/08/17 01:43:44;;;;;;;14.80;13.30;;;20.90;99.00;;;;;;5050755;28;20446;-81
2022/08/17 01:46:16;;;;;;;15.23;13.63;;;20.90;99.40;;;;;;5040434;28;20438;-80
2022/08/17 01:48:46;;;;;;;16.00;14.60;;;20.80;99.70;;;;;;5045388;28;20445;-80
2022/08/17 01:51:14;;;;;;;14.07;12.87;;;20.80;99.90;;;;;;5051578;28;20544;-81
2022/08/17 01:53:46;;;;;;;15.40;14.00;;;20.70;99.90;;;;;;5047117;28;20446;-81
2022/08/17 01:56:18;;;;;;;15.53;14.10;;;20.70;99.90;;;;;;5043341;28;20468;-81
2022/08/17 01:58:45;;;;;;;14.00;12.70;;;20.80;99.90;;;;;;5040982;28;20449;-81
2022/08/17 02:01:13;;;;;;;14.50;13.20;;;20.70;99.90;;;;;;5039968;28;20491;-81
2022/08/17 02:03:45;;;;;;;13.50;12.10;;;20.70;99.90;;;;;;5040362;28;20462;-81
2022/08/17 02:06:12;;;;;;;13.07;11.97;;;20.60;99.90;;;;;;5039720;28;20446;-81
2022/08/17 02:08:41;;;;;;;16.20;14.70;;;20.60;99.90;;;;;;5040721;28;20489;-81
2022/08/17 02:11:15;;;;;;;15.17;13.60;;;20.60;99.90;;;;;;5041318;28;20481;-81
2022/08/17 02:13:45;;;;;;;15.77;14.33;;;20.50;99.90;;;;;;5038828;28;20462;-81
2022/08/17 02:16:13;;;;;;;16.03;14.60;;;20.50;99.90;;;;;;5038810;28;20845;-83
2022/08/17 02:18:41;;;;;;;15.33;13.73;;;20.50;99.90;;;;;;5044293;28;20550;-82
2022/08/17 02:21:08;;;;;;;16.03;14.53;;;20.50;99.90;;;;;;5046305;28;20484;-82
2022/08/17 02:23:41;;;;;;;15.93;14.10;;;20.60;99.90;;;;;;5039234;28;20456;-82
2022/08/17 02:26:08;;;;;;;16.50;14.30;;;20.60;99.90;;;;;;5038194;28;20532;-82
2022/08/17 02:28:37;;;;;;;16.73;15.17;;;20.60;99.90;;;;;;5038747;28;20454;-82
2022/08/17 02:31:08;;;;;;;15.60;14.20;;;20.50;99.90;;;;;;5046364;28;20505;-82
2022/08/17 02:33:35;;;;;;;15.43;14.10;;;20.50;99.90;;;;;;5042755;28;20497;-82
2022/08/17 02:36:03;;;;;;;15.13;13.73;;;20.50;99.90;;;;;;5038933;28;20449;-82
2022/08/17 02:38:32;;;;;;;16.93;12.90;;;20.60;99.90;;;;;;5039024;28;21048;-82
2022/08/17 02:40:59;;;;;;;16.70;14.27;;;20.50;99.90;;;;;;5046508;28;20481;-80
2022/08/17 02:43:27;;;;;;;18.67;15.87;;;20.50;99.90;;;;;;5054686;28;20509;-81
2022/08/17 02:45:56;;;;;;;17.13;15.63;;;20.50;99.90;;;;;;5054258;28;20473;-82
2022/08/17 02:48:24;;;;;;;22.07;15.33;;;20.50;99.90;;;;;;5046243;28;20460;-82
2022/08/17 02:50:51;;;;;;;17.23;15.63;;;20.50;99.90;;;;;;5039223;28;20493;-82
2022/08/17 02:53:18;;;;;;;13.90;12.70;;;20.40;99.90;;;;;;5038661;28;20498;-82
2022/08/17 02:55:45;;;;;;;15.83;14.40;;;20.30;99.90;;;;;;5038722;28;20477;-82
2022/08/17 02:58:12;;;;;;;14.33;13.00;;;20.30;99.90;;;;;;5037491;28;20457;-82
2022/08/17 03:00:42;;;;;;;16.07;13.80;;;20.30;99.90;;;;;;5038263;28;20895;-82
2022/08/17 03:03:12;;;;;;;16.93;15.33;;;20.40;99.90;;;;;;5037741;28;20448;-82
2022/08/17 03:05:40;;;;;;;14.80;13.50;;;20.40;99.90;;;;;;5037519;28;20464;-82
2022/08/17 03:08:08;;;;;;;16.20;14.60;;;20.40;99.90;;;;;;5040904;28;20460;-83
2022/08/17 03:10:35;;;;;;;14.07;12.77;;;20.30;99.90;;;;;;5048588;28;20453;-81
2022/08/17 03:13:02;;;;;;;16.03;14.67;;;20.30;99.90;;;;;;5048302;28;20442;-82
2022/08/17 03:15:32;;;;;;;16.60;14.77;;;20.30;99.90;;;;;;5039881;28;20526;-82
2022/08/17 03:18:00;;;;;;;16.03;14.30;;;20.30;99.90;;;;;;5039488;28;20873;-82
2022/08/17 03:20:29;;;;;;;16.17;14.57;;;20.30;99.90;;;;;;5040008;28;21014;-82
2022/08/17 03:22:58;;;;;;;15.20;13.70;;;20.20;99.90;;;;;;5045318;28;20655;-82
2022/08/17 03:25:30;;;;;;;16.70;15.17;;;20.20;99.90;;;;;;5052133;28;20532;-82
2022/08/17 03:27:57;;;;;;;16.60;14.90;;;20.20;99.90;;;;;;5049203;28;20457;-82
2022/08/17 03:30:26;;;;;;;17.23;14.70;;;20.10;99.90;;;;;;5050335;28;20795;-82
2022/08/17 03:32:58;;;;;;;16.97;15.33;;;20.10;99.90;;;;;;5051367;28;20433;-82
2022/08/17 03:35:28;;;;;;;17.07;15.43;;;20.00;99.90;;;;;;5047818;28;20453;-82
2022/08/17 03:37:57;;;;;;;16.47;14.87;;;20.10;99.90;;;;;;5050494;28;20469;-80
2022/08/17 03:40:24;;;;;;;19.30;16.13;;;20.10;99.90;;;;;;5050403;28;20497;-82
2022/08/17 03:42:53;;;;;;;15.93;14.23;;;20.10;99.90;;;;;;5042642;28;20456;-80
2022/08/17 03:56:43;;;;;;;16.87;15.17;;;19.90;99.90;;;;;;5054543;28;20558;-83
2022/08/17 03:59:11;;;;;;;15.03;13.50;;;19.90;99.90;;;;;;5055618;28;20471;-83
2022/08/17 04:01:39;;;;;;;15.47;13.97;;;19.90;99.90;;;;;;5055576;28;20510;-82
2022/08/17 04:04:06;;;;;;;15.60;14.07;;;19.90;99.90;;;;;;5055634;28;20445;-82
2022/08/17 04:06:32;;;;;;;16.70;15.10;;;19.80;99.90;;;;;;5055210;28;20448;-82
2022/08/17 04:09:00;;;;;;;20.67;18.63;;;19.80;99.90;;;;;;5055254;28;20459;-82
2022/08/17 04:11:27;;;;;;;17.23;15.70;;;19.80;99.90;;;;;;5073996;28;20445;-82
2022/08/17 04:13:55;;;;;;;19.80;16.13;;;19.80;99.90;;;;;;5063975;28;20441;-83
2022/08/17 04:16:22;;;;;;;16.47;14.90;;;19.70;99.90;;;;;;5054873;28;20480;-83
2022/08/17 04:18:49;;;;;;;20.20;17.20;;;19.60;99.90;;;;;;5055055;28;20444;-83
2022/08/17 04:21:15;;;;;;;22.20;17.43;;;19.50;99.90;;;;;;5054132;28;20545;-83
2022/08/17 04:23:42;;;;;;;16.73;15.13;;;19.40;99.90;;;;;;5054691;28;20441;-83
2022/08/17 04:26:11;;;;;;;18.73;16.83;;;19.40;99.90;;;;;;5054912;28;20487;-84
2022/08/17 04:28:38;;;;;;;20.63;16.00;;;19.40;99.90;;;;;;5054659;28;20483;-84
2022/08/17 04:31:04;;;;;;;20.77;18.67;;;19.50;99.90;;;;;;5054772;28;20471;-84
2022/08/17 04:33:32;;;;;;;20.10;18.00;;;19.50;99.90;;;;;;5054440;28;20448;-84
2022/08/17 04:36:01;;;;;;;21.47;19.33;;;19.40;99.90;;;;;;5054199;28;20448;-84
2022/08/17 04:38:30;;;;;;;18.63;16.60;;;19.40;99.90;;;;;;5054399;28;20502;-84
2022/08/17 04:43:45;;;;;;;21.47;17.13;;;19.40;99.90;;;;;;5058979;28;20440;-83
2022/08/17 04:46:15;;;;;;;18.80;17.00;;;19.50;99.90;;;;;;5063767;28;20433;-84
2022/08/17 04:48:44;;;;;;;22.07;16.43;;;19.40;99.90;;;;;;5072681;28;20452;-82
2022/08/17 04:51:13;;;;;;;19.00;16.83;;;19.40;99.90;;;;;;5069787;28;20504;-83
2022/08/17 04:53:41;;;;;;;17.40;15.80;;;19.50;99.90;;;;;;5059995;28;20452;-84
2022/08/17 04:56:09;;;;;;;18.90;16.63;;;19.60;99.90;;;;;;5055766;28;20452;-84
2022/08/17 04:58:36;;;;;;;23.97;17.13;;;19.60;99.90;;;;;;5054616;28;20475;-84
2022/08/17 05:01:04;;;;;;;17.80;16.03;;;19.70;99.90;;;;;;5055505;28;20493;-84
2022/08/17 05:03:31;;;;;;;18.90;16.80;;;19.80;99.90;;;;;;5054817;28;20459;-84
2022/08/17 05:05:58;;;;;;;22.03;17.70;;;19.90;99.90;;;;;;5056998;28;20456;-84
2022/08/17 05:08:25;;;;;;;19.57;17.50;;;20.00;99.90;;;;;;5078587;28;20421;-84
2022/08/17 05:10:51;;;;;;;16.33;14.70;;;20.10;99.90;;;;;;5078764;28;20511;-80
2022/08/17 05:13:20;;;;;;;17.13;15.67;;;20.20;99.90;;;;;;5062313;28;20449;-81
2022/08/17 05:15:49;;;;;;;17.00;15.30;;;20.50;99.90;;;;;;5062672;28;20957;-81
2022/08/17 05:18:17;;;;;;;19.17;15.20;;;20.70;99.90;;;;;;5063586;28;20449;-81
2022/08/17 05:20:45;;;;;;;19.10;17.27;;;20.80;99.90;;;;;;5062497;28;20540;-81
2022/08/17 05:23:14;;;;;;;17.03;15.33;;;20.90;99.90;;;;;;5063908;28;20471;-81
2022/08/17 05:25:45;;;;;;;17.53;15.73;;;20.80;99.90;;;;;;5063133;28;20448;-81
2022/08/17 05:28:11;;;;;;;16.67;15.10;;;20.90;99.90;;;;;;5063433;28;20521;-81
2022/08/17 05:30:40;;;;;;;17.43;15.70;;;21.10;99.90;;;;;;5062507;28;20775;-80
2022/08/17 05:33:09;;;;;;;16.47;14.10;;;21.10;99.90;;;;;;5063376;28;20463;-81
2022/08/17 05:35:43;;;;;;;15.13;13.70;;;21.50;99.90;;;;;;5063862;28;20444;-80
2022/08/17 05:38:10;;;;;;;16.83;13.90;;;21.80;99.90;;;;;;5076074;28;20461;-80
2022/08/17 05:40:38;;;;;;;15.70;14.27;;;22.00;99.90;;;;;;5061260;28;20735;-81
2022/08/17 05:43:07;;;;;;;16.13;14.47;;;22.10;99.80;;;;;;5059244;28;20489;-81
2022/08/17 05:45:35;;;;;;;16.57;14.87;;;22.10;99.60;;;;;;5055719;28;20525;-84
2022/08/17 05:48:02;;;;;;;16.07;14.50;;;22.10;99.40;;;;;;5053694;28;20503;-84
2022/08/17 05:50:36;;;;;;;17.67;14.97;;;22.10;99.20;;;;;;5053293;28;20448;-84
2022/08/17 05:53:11;;;;;;;23.63;14.60;;;22.20;99.00;;;;;;5054651;28;20456;-82
2022/08/17 05:55:45;;;;;;;15.87;14.47;;;22.60;98.30;;;;;;5060568;28;20475;-81
2022/08/17 05:58:23;;;;;;;17.17;15.50;;;23.10;97.30;;;;;;5073298;28;20448;-82
2022/08/17 06:00:56;;;;;;;16.83;14.53;;;23.10;96.60;;;;;;5070044;28;20484;-82
2022/08/17 06:03:39;;;;;;;15.87;14.10;;;23.60;95.90;;;;;;5058805;28;20444;-82
2022/08/17 06:06:24;;;;;;;15.67;14.10;;;24.30;94.50;;;;;;5053993;28;20453;-82
2022/08/17 06:08:58;;;;;;;14.57;13.03;;;25.00;92.00;;;;;;5053494;28;20463;-82
2022/08/17 06:11:36;;;;;;;16.07;11.60;;;25.50;89.10;;;;;;5053935;28;20464;-82
2022/08/17 06:14:21;;;;;;;13.57;12.33;;;25.80;86.00;;;;;;5057231;28;21895;-83
2022/08/17 06:16:58;;;;;;;15.30;13.13;;;26.10;82.40;;;;;;5058242;28;20488;-82
2022/08/17 06:19:35;;;;;;;16.50;12.33;;;26.10;80.30;;;;;;5058780;28;20954;-80
2022/08/17 06:22:05;;;;;;;13.27;12.00;;;26.00;80.50;;;;;;5054876;28;20485;-84
2022/08/17 06:24:37;;;;;;;14.93;10.93;;;25.70;80.90;;;;;;5054446;28;20532;-83
2022/08/17 06:27:11;;;;;;;14.23;11.60;;;26.00;80.80;;;;;;5052880;28;20520;-82
2022/08/17 06:29:45;;;;;;;14.27;11.77;;;26.10;79.20;;;;;;5054987;28;20444;-83
2022/08/17 06:32:13;;;;;;;14.07;11.57;;;26.60;78.30;;;;;;5054157;28;20474;-82
2022/08/17 06:34:42;;;;;;;12.03;10.80;;;27.00;75.60;;;;;;5052901;28;20452;-82
2022/08/17 06:37:26;;;;;;;14.17;10.47;;;27.30;73.90;;;;;;5056028;28;20832;-83
2022/08/17 06:40:03;;;;;;;11.80;9.93;;;27.40;71.70;;;;;;5067209;28;20445;-83
2022/08/17 06:42:39;;;;;;;15.20;11.57;;;27.00;71.50;;;;;;5073359;28;20483;-82
2022/08/17 06:45:10;;;;;;;10.43;9.53;;;26.70;72.60;;;;;;5060667;28;20448;-82
2022/08/17 06:47:46;;;;;;;16.00;10.20;;;27.10;73.10;;;;;;5054704;28;20448;-82
2022/08/17 06:50:19;;;;;;;10.63;8.83;;;27.70;70.10;;;;;;5065339;28;20432;-82
2022/08/17 06:52:53;;;;;;;11.10;9.97;;;27.80;67.30;;;;;;5074997;28;20475;-81
2022/08/17 06:55:28;;;;;;;10.90;9.80;;;27.80;67.60;;;;;;5074889;28;20480;-83
2022/08/17 06:58:00;;;;;;;10.60;9.60;;;28.10;65.40;;;;;;5066108;28;20445;-83
2022/08/17 07:00:33;;;;;;;13.40;9.07;;;28.80;64.60;;;;;;5054293;28;20452;-83
2022/08/17 07:03:05;;;;;;;9.37;8.43;;;29.20;62.10;;;;;;5053182;28;20539;-83
2022/08/17 07:05:37;;;;;;;9.83;8.73;;;29.20;61.20;;;;;;5052268;28;20444;-83
2022/08/17 07:08:11;;;;;;;10.30;9.30;;;29.50;61.10;;;;;;5052672;28;20459;-83
2022/08/17 07:10:45;;;;;;;9.33;8.53;;;30.60;58.60;;;;;;5052564;28;20458;-82
2022/08/17 07:13:33;;;;;;;9.07;8.30;;;31.20;56.30;;;;;;5052983;28;20452;-83
2022/08/17 07:16:10;;;;;;;9.77;8.10;;;31.00;56.20;;;;;;5057933;28;20442;-82
2022/08/17 07:18:37;;;;;;;11.30;8.67;;;32.10;54.10;;;;;;5055882;28;20456;-83
2022/08/17 07:21:16;;;;;;;9.50;7.50;;;33.30;52.10;;;;;;5055918;28;20473;-83
2022/08/17 07:24:13;;;;;;;8.00;7.33;;;33.90;48.70;;;;;;5061563;28;20550;-83
2022/08/17 07:26:41;;;;;;;8.97;8.07;;;34.00;48.60;;;;;;5051892;28;20955;-83
2022/08/17 07:29:10;;;;;;;8.17;7.50;;;34.10;48.70;;;;;;5051900;28;20825;-82
2022/08/17 07:31:37;;;;;;;9.73;7.73;;;34.20;48.20;;;;;;5074142;28;20472;-83
2022/08/17 07:34:09;;;;;;;9.57;7.50;;;34.80;47.10;;;;;;5062133;28;20447;-82
2022/08/17 07:36:36;;;;;;;8.70;8.00;;;34.90;46.40;;;;;;5036915;28;20456;-82
2022/08/17 07:39:04;;;;;;;8.10;6.70;;;35.30;45.60;;;;;;5036533;28;20873;-82
2022/08/17 07:41:38;;;;;;;7.07;6.57;;;35.30;44.40;;;;;;5041577;28;20545;-82
2022/08/17 07:44:12;;;;;;;6.00;5.50;;;35.30;43.40;;;;;;5047890;28;20465;-82
2022/08/17 07:49:35;;;;;;;7.00;6.33;;;35.40;43.00;;;;;;5032711;28;20491;-83
2022/08/17 07:52:07;;;;;;;6.23;5.73;;;35.80;42.60;;;;;;5031666;28;20510;-83
2022/08/17 07:54:36;;;;;;;6.60;6.10;;;35.60;42.10;;;;;;5031965;28;20462;-82
2022/08/17 07:57:27;;;;;;;6.60;6.00;;;34.00;43.50;;;;;;5037351;28;20461;-82
2022/08/17 08:00:18;;;;;;;7.57;6.50;;;32.30;46.10;;;;;;5054368;28;20443;-82
2022/08/17 08:02:59;;;;;;;7.17;6.50;;;31.70;47.90;;;;;;5041909;28;21064;-84
2022/08/17 08:05:28;;;;;;;6.80;6.20;;;31.30;48.90;;;;;;5032418;28;21212;-83
2022/08/17 08:08:00;;;;;;;7.03;6.53;;;31.10;49.40;;;;;;5044372;28;20548;-83
2022/08/17 08:10:31;;;;;;;8.60;6.63;;;30.90;50.20;;;;;;5054374;28;20443;-83
2022/08/17 08:13:07;;;;;;;7.63;6.93;;;30.90;50.40;;;;;;5046034;28;20863;-83
2022/08/17 08:15:38;;;;;;;6.87;6.27;;;31.10;50.60;;;;;;5046362;28;20447;-82
2022/08/17 08:18:20;;;;;;;7.63;7.00;;;31.10;50.00;;;;;;5043480;28;20823;-83
2022/08/17 08:20:50;;;;;;;9.00;7.57;;;30.90;50.20;;;;;;5047193;28;20475;-83
2022/08/17 08:23:28;;;;;;;7.73;7.07;;;30.40;51.00;;;;;;5049846;28;20470;-83
2022/08/17 08:26:07;;;;;;;9.10;8.20;;;30.20;51.90;;;;;;5050279;28;20939;-84
2022/08/17 08:28:48;;;;;;;11.60;8.20;;;29.90;52.70;;;;;;5053032;28;20806;-84
2022/08/17 08:31:24;;;;;;;8.00;7.40;;;29.70;53.10;;;;;;5066917;28;20502;-85
2022/08/17 08:34:02;;;;;;;7.80;7.10;;;29.50;53.40;;;;;;5059641;28;20513;-84
2022/08/17 08:36:39;;;;;;;8.57;7.77;;;29.10;53.90;;;;;;5064179;28;20470;-85
2022/08/17 08:39:15;;;;;;;8.03;7.33;;;28.90;54.60;;;;;;5074724;28;20426;-85
2022/08/17 08:41:48;;;;;;;8.07;7.43;;;28.70;55.20;;;;;;5060875;28;20480;-85
2022/08/17 08:44:29;;;;;;;8.30;7.70;;;28.40;55.70;;;;;;5054934;28;21003;-84
2022/08/17 08:47:04;;;;;;;7.70;7.10;;;28.10;56.80;;;;;;5045727;28;20444;-84
2022/08/17 08:49:45;;;;;;;8.83;7.97;;;27.90;57.40;;;;;;5044936;28;20823;-84
2022/08/17 08:52:22;;;;;;;8.67;7.20;;;27.70;57.90;;;;;;5043039;28;20840;-84
2022/08/17 08:54:57;;;;;;;8.40;7.53;;;27.50;58.30;;;;;;5053576;28;20437;-84
2022/08/17 08:57:31;;;;;;;7.63;6.93;;;27.40;59.00;;;;;;5040216;28;20443;-85
2022/08/17 09:00:07;;;;;;;7.77;7.07;;;27.20;59.00;;;;;;5050297;28;20445;-84
2022/08/17 09:03:02;;;;;;;7.40;6.90;;;27.30;59.10;;;;;;5049081;28;20536;-84
2022/08/17 09:05:42;;;;;;;7.93;7.30;;;27.30;59.20;;;;;;5058195;28;20444;-84
2022/08/17 09:08:15;;;;;;;9.73;8.10;;;27.40;59.30;;;;;;5047378;28;20464;-84
2022/08/17 09:11:01;;;;;;;17.63;10.67;;;27.30;59.40;;;;;;5044484;28;20450;-83
2022/08/17 09:13:38;;;;;;;9.17;7.83;;;27.40;59.80;;;;;;5046187;28;20944;-84
2022/08/17 09:16:14;;;;;;;10.13;8.00;;;27.30;60.90;;;;;;5043633;28;20496;-83
2022/08/17 09:18:50;;;;;;;9.03;7.53;;;27.30;60.20;;;;;;5046900;28;20531;-83
2022/08/17 09:21:23;;;;;;;10.23;8.17;;;27.30;59.90;;;;;;5039633;28;20907;-83
2022/08/17 09:24:01;;;;;;;8.83;7.57;;;27.40;60.00;;;;;;5047051;28;20488;-87
2022/08/17 09:26:31;;;;;;;9.50;8.60;;;27.50;60.00;;;;;;5046830;28;20458;-88
2022/08/17 09:29:02;;;;;;;9.50;8.63;;;27.70;59.70;;;;;;5053840;28;20442;-88
2022/08/17 09:31:34;;;;;;;8.63;7.83;;;27.90;59.60;;;;;;5054783;28;20518;-88
2022/08/17 09:34:17;;;;;;;9.27;7.13;;;27.90;59.10;;;;;;5043516;28;20496;-87
2022/08/17 09:36:49;;;;;;;8.27;7.47;;;27.70;59.00;;;;;;5057529;28;20507;-88
2022/08/17 09:39:22;;;;;;;10.67;7.63;;;27.60;59.40;;;;;;5075480;28;20420;-87
2022/08/17 09:41:55;;;;;;;13.60;7.97;;;27.40;60.10;;;;;;5071431;28;20463;-88
2022/08/17 09:44:30;;;;;;;9.17;8.30;;;27.30;60.30;;;;;;5058752;28;20449;-88
2022/08/17 09:47:07;;;;;;;10.33;7.80;;;27.10;60.50;;;;;;5057023;28;20555;-87
2022/08/17 09:49:41;;;;;;;12.57;8.50;;;27.10;61.40;;;;;;5059373;28;20449;-86
2022/08/17 09:52:16;;;;;;;10.13;8.93;;;27.10;61.90;;;;;;5068479;22;20503;-86
2022/08/17 09:54:46;;;;;;;11.63;10.40;;;27.30;62.30;;;;;;5054063;28;20432;-86
2022/08/17 09:57:26;;;;;;;12.53;10.07;;;27.50;63.70;;;;;;5053273;28;20448;-86
2022/08/17 10:00:14;;;;;;;10.83;9.83;;;27.70;63.00;;;;;;5057211;28;20444;-86
2022/08/17 10:02:55;;;;;;;11.20;9.10;;;27.80;61.70;;;;;;5076915;28;20536;-85
2022/08/17 10:05:32;;;;;;;8.83;8.07;;;27.80;61.20;;;;;;5076559;28;20422;-85
2022/08/17 10:08:08;;;;;;;8.50;7.80;;;27.70;61.40;;;;;;5071879;28;20514;-84
2022/08/17 10:10:45;;;;;;;12.70;9.10;;;27.80;60.20;;;;;;5078961;28;20470;-85
2022/08/17 10:13:20;;;;;;;10.07;9.20;;;28.00;60.60;;;;;;5071485;28;20563;-86
2022/08/17 10:15:54;;;;;;;8.80;7.90;;;28.50;60.10;;;;;;5055056;28;20632;-86
2022/08/17 10:18:36;;;;;;;9.53;8.53;;;29.00;58.50;;;;;;5055774;28;20434;-86
2022/08/17 10:26:48;;;;;;;7.37;6.67;;;30.00;56.80;;;;;;5054811;28;20426;-86
2022/08/17 10:29:19;;;;;;;6.47;5.80;;;30.10;55.60;;;;;;5055436;28;20455;-86
2022/08/17 10:31:51;;;;;;;6.80;6.20;;;29.90;54.50;;;;;;5068362;28;20785;-86
2022/08/17 10:34:46;;;;;;;6.17;5.67;;;29.60;54.70;;;;;;5061931;28;20445;-86
2022/08/17 10:37:36;;;;;;;5.70;5.20;;;29.40;55.00;;;;;;5055059;28;20518;-86
2022/08/17 10:40:23;;;;;;;5.47;5.07;;;29.30;55.00;;;;;;5063870;28;20456;-86
2022/08/17 10:42:54;;;;;;;5.90;5.27;;;29.20;55.10;;;;;;5064808;28;20995;-86
2022/08/17 10:45:25;;;;;;;6.97;6.13;;;29.50;55.00;;;;;;5062960;28;20459;-85
2022/08/17 10:47:58;;;;;;;5.23;4.73;;;29.60;54.80;;;;;;5063778;28;20946;-86
2022/08/17 10:50:48;;;;;;;6.67;5.70;;;29.70;54.60;;;;;;5060165;28;20540;-86
2022/08/17 10:53:48;;;;;;;5.77;5.33;;;29.50;54.20;;;;;;5067208;28;20473;-86
2022/08/17 10:56:23;;;;;;;7.37;6.50;;;29.20;54.30;;;;;;5070695;28;20436;-84
2022/08/17 10:58:53;;;;;;;6.47;5.87;;;28.80;55.80;;;;;;5067635;28;20952;-86
2022/08/17 11:01:42;;;;;;;6.13;5.63;;;28.60;55.60;;;;;;5069549;28;20432;-85
2022/08/17 11:04:22;;;;;;;6.97;5.33;;;28.60;55.70;;;;;;5066599;28;20489;-86
2022/08/17 11:07:01;;;;;;;9.20;6.90;;;28.60;55.30;;;;;;5055884;28;20445;-86
2022/08/17 11:09:38;;;;;;;6.33;5.47;;;28.50;55.60;;;;;;5056991;28;20556;-86
2022/08/17 11:12:27;;;;;;;10.00;7.40;;;28.40;56.80;;;;;;5058976;28;20474;-87
2022/08/17 11:15:07;;;;;;;6.30;5.70;;;28.30;57.30;;;;;;5057536;28;20461;-86
2022/08/17 11:18:06;;;;;;;6.47;5.90;;;27.90;58.80;;;;;;5057000;28;20451;-86
2022/08/17 11:21:13;;;;;;;7.23;5.97;;;27.70;59.90;;;;;;5067212;28;20453;-85
2022/08/17 11:23:58;;;;;;;6.37;5.70;;;27.60;61.90;;;;;;5056001;28;20495;-86
2022/08/17 11:26:28;;;;;;;6.27;5.67;;;27.40;63.20;;;;;;5054260;28;20433;-86
2022/08/17 11:29:00;;;;;;;6.23;5.63;;;27.40;64.20;;;;;;5054488;28;20506;-87
2022/08/17 11:31:34;;;;;;;6.67;6.07;;;27.30;64.60;;;;;;5053763;28;20535;-86
2022/08/17 11:34:03;;;;;;;6.07;5.40;;;27.30;65.00;;;;;;5053815;28;20453;-86
2022/08/17 11:37:14;;;;;;;5.83;5.10;;;27.10;65.60;;;;;;5053302;28;20528;-85
2022/08/17 11:40:04;;;;;;;5.80;5.30;;;26.90;65.20;;;;;;5036060;28;20438;-85
2022/08/17 11:42:47;;;;;;;7.03;6.20;;;26.70;65.70;;;;;;5067370;28;20487;-86
2022/08/17 11:45:43;;;;;;;7.27;6.43;;;26.50;66.80;;;;;;5059697;28;20956;-85
2022/08/17 11:54:11;;;;;;;6.67;5.90;;;25.90;71.00;;;;;;5075312;28;20435;-84
2022/08/17 11:56:44;;;;;;;6.63;6.03;;;25.90;70.60;;;;;;5077681;28;20421;-84
2022/08/17 11:59:48;;;;;;;7.00;6.00;;;26.00;71.00;;;;;;5080453;28;20436;-85
2022/08/17 12:02:33;;;;;;;5.90;5.40;;;26.20;70.90;;;;;;5079142;28;20464;-86
2022/08/17 12:05:10;;;;;;;7.10;6.50;;;26.50;70.20;;;;;;5066821;28;20527;-86
2022/08/17 12:07:42;;;;;;;5.90;5.40;;;26.70;68.80;;;;;;5058708;28;20457;-87
2022/08/17 12:10:11;;;;;;;5.50;5.00;;;26.90;67.50;;;;;;5058243;28;20441;-86
2022/08/17 12:12:42;;;;;;;6.27;5.63;;;27.10;67.00;;;;;;5075615;28;20458;-86
2022/08/17 12:15:17;;;;;;;6.03;5.43;;;27.20;66.70;;;;;;5080385;28;20468;-84
2022/08/17 12:17:53;;;;;;;6.40;5.80;;;27.30;66.50;;;;;;5059459;28;20444;-86
2022/08/17 12:20:23;;;;;;;7.00;6.30;;;27.50;66.00;;;;;;5059393;28;20515;-86
2022/08/17 12:23:03;;;;;;;6.17;5.67;;;27.80;65.20;;;;;;5062118;28;20475;-86
2022/08/17 12:25:35;;;;;;;7.37;6.47;;;28.00;64.30;;;;;;5081197;28;20432;-85
2022/08/17 12:28:02;;;;;;;7.83;6.40;;;28.60;63.20;;;;;;5080492;28;20446;-86
2022/08/17 12:30:29;;;;;;;5.93;5.47;;;28.80;62.00;;;;;;5069415;28;20445;-86
2022/08/17 12:32:57;;;;;;;5.70;5.20;;;28.90;61.20;;;;;;5058077;28;20461;-86
2022/08/17 12:35:31;;;;;;;6.73;6.13;;;28.80;60.30;;;;;;5061433;28;20452;-86
2022/08/17 12:37:59;;;;;;;6.10;5.60;;;28.80;59.00;;;;;;5059454;28;20459;-87
2022/08/17 12:40:27;;;;;;;5.60;5.10;;;29.00;58.30;;;;;;5059994;28;20437;-87
2022/08/17 12:42:56;;;;;;;6.13;5.53;;;29.10;57.90;;;;;;5066882;28;20483;-86
2022/08/17 12:45:26;;;;;;;6.17;5.70;;;29.40;57.70;;;;;;5057661;28;20446;-86
2022/08/17 12:48:06;;;;;;;5.40;5.00;;;29.50;57.60;;;;;;5056962;28;20451;-85
2022/08/17 12:50:34;;;;;;;5.73;5.20;;;29.60;57.40;;;;;;5058130;28;20445;-87
2022/08/17 12:53:01;;;;;;;5.97;5.47;;;29.50;57.40;;;;;;5057181;28;20483;-86
2022/08/17 12:55:28;;;;;;;6.00;5.50;;;29.50;57.40;;;;;;5057133;28;20433;-87
2022/08/17 12:57:58;;;;;;;8.40;5.73;;;29.80;57.60;;;;;;5058264;28;20446;-86
2022/08/17 13:00:28;;;;;;;6.30;5.80;;;29.70;56.10;;;;;;5062876;28;20516;-86
2022/08/17 13:02:58;;;;;;;6.73;6.17;;;29.90;55.30;;;;;;5061681;28;20490;-86
2022/08/17 13:05:29;;;;;;;6.03;5.27;;;30.00;54.10;;;;;;5071782;28;20441;-87
2022/08/17 13:07:58;;;;;;;6.50;6.00;;;30.30;53.60;;;;;;5059852;28;20442;-87
2022/08/17 13:10:27;;;;;;;5.83;5.33;;;30.50;52.90;;;;;;5057127;28;20455;-87
2022/08/17 13:12:55;;;;;;;5.30;4.80;;;32.10;51.70;;;;;;5056977;28;20487;-86
2022/08/17 13:15:28;;;;;;;7.07;5.17;;;33.90;47.00;;;;;;5057542;28;20448;-86
2022/08/17 13:18:03;;;;;;;5.17;4.77;;;33.70;45.50;;;;;;5057793;28;20509;-88
2022/08/17 13:20:32;;;;;;;5.50;5.00;;;33.80;45.30;;;;;;5057582;28;20442;-86
2022/08/17 13:23:05;;;;;;;5.27;4.87;;;35.50;43.20;;;;;;5068359;28;20480;-84
2022/08/17 13:25:33;;;;;;;5.30;4.90;;;36.00;40.40;;;;;;5067206;28;20813;-86
2022/08/17 13:28:00;;;;;;;5.97;4.40;;;36.30;39.50;;;;;;5058517;28;20965;-86
2022/08/17 13:30:31;;;;;;;5.23;4.73;;;37.10;39.20;;;;;;5057475;28;20447;-87
2022/08/17 13:32:58;;;;;;;5.10;4.70;;;37.20;37.90;;;;;;5057580;28;20475;-86